sensor_id;sensor_type;location;lat;lon;timestamp;P1;durP1;ratioP1;P2;durP2;ratioP2
25381;SDS011;16307;42.896;20.874;2023-12-07T00:00:46;35.00;;;16.90;;
25381;SDS011;16307;42.896;20.874;2023-12-07T00:03:32;28.02;;;15.18;;
25381;SDS011;16307;42.896;20.874;2023-12-07T00:06:18;32.75;;;16.30;;
25381;SDS011;16307;42.896;20.874;2023-12-07T00:09:05;37.85;;;19.13;;
25381;SDS011;16307;42.896;20.874;2023-12-07T00:11:52;46.08;;;22.33;;
25381;SDS011;16307;42.896;20.874;2023-12-07T00:14:38;41.40;;;22.25;;
25381;SDS011;16307;42.896;20.874;2023-12-07T00:17:24;42.70;;;20.77;;
25381;SDS011;16307;42.896;20.874;2023-12-07T00:20:10;38.17;;;20.05;;
25381;SDS011;16307;42.896;20.874;2023-12-07T00:22:56;42.45;;;20.33;;
25381;SDS011;16307;42.896;20.874;2023-12-07T00:25:42;36.80;;;19.88;;
25381;SDS011;16307;42.896;20.874;2023-12-07T00:28:28;32.63;;;17.55;;
25381;SDS011;16307;42.896;20.874;2023-12-07T00:31:14;34.78;;;17.30;;
25381;SDS011;16307;42.896;20.874;2023-12-07T00:34:00;36.22;;;17.58;;
25381;SDS011;16307;42.896;20.874;2023-12-07T00:36:46;27.77;;;15.30;;
25381;SDS011;16307;42.896;20.874;2023-12-07T00:39:32;26.20;;;13.50;;
25381;SDS011;16307;42.896;20.874;2023-12-07T00:42:18;20.65;;;11.75;;
25381;SDS011;16307;42.896;20.874;2023-12-07T00:45:04;20.55;;;11.18;;
25381;SDS011;16307;42.896;20.874;2023-12-07T00:47:51;19.58;;;11.57;;
25381;SDS011;16307;42.896;20.874;2023-12-07T00:50:37;19.42;;;11.05;;
25381;SDS011;16307;42.896;20.874;2023-12-07T00:53:23;21.52;;;11.27;;
25381;SDS011;16307;42.896;20.874;2023-12-07T00:56:09;20.25;;;11.43;;
25381;SDS011;16307;42.896;20.874;2023-12-07T00:58:55;22.00;;;11.57;;
25381;SDS011;16307;42.896;20.874;2023-12-07T01:01:41;19.83;;;11.57;;
25381;SDS011;16307;42.896;20.874;2023-12-07T01:04:28;19.52;;;11.93;;
25381;SDS011;16307;42.896;20.874;2023-12-07T01:07:14;23.55;;;12.13;;
25381;SDS011;16307;42.896;20.874;2023-12-07T01:10:00;22.52;;;12.65;;
25381;SDS011;16307;42.896;20.874;2023-12-07T01:12:47;22.92;;;12.50;;
25381;SDS011;16307;42.896;20.874;2023-12-07T01:15:33;20.20;;;11.68;;
25381;SDS011;16307;42.896;20.874;2023-12-07T01:18:19;21.83;;;13.20;;
25381;SDS011;16307;42.896;20.874;2023-12-07T01:21:05;20.83;;;11.50;;
25381;SDS011;16307;42.896;20.874;2023-12-07T01:23:51;20.23;;;11.95;;
25381;SDS011;16307;42.896;20.874;2023-12-07T01:26:51;23.98;;;11.82;;
25381;SDS011;16307;42.896;20.874;2023-12-07T01:29:37;21.90;;;12.35;;
25381;SDS011;16307;42.896;20.874;2023-12-07T01:32:23;25.42;;;13.02;;
25381;SDS011;16307;42.896;20.874;2023-12-07T01:35:09;20.42;;;11.02;;
25381;SDS011;16307;42.896;20.874;2023-12-07T01:37:56;17.27;;;10.40;;
25381;SDS011;16307;42.896;20.874;2023-12-07T01:40:42;17.92;;;10.60;;
25381;SDS011;16307;42.896;20.874;2023-12-07T01:43:31;18.85;;;10.73;;
25381;SDS011;16307;42.896;20.874;2023-12-07T01:46:17;18.40;;;10.73;;
25381;SDS011;16307;42.896;20.874;2023-12-07T01:49:04;17.67;;;10.55;;
25381;SDS011;16307;42.896;20.874;2023-12-07T01:51:51;21.75;;;10.45;;
25381;SDS011;16307;42.896;20.874;2023-12-07T01:54:37;17.70;;;10.85;;
25381;SDS011;16307;42.896;20.874;2023-12-07T01:57:24;17.73;;;10.45;;
25381;SDS011;16307;42.896;20.874;2023-12-07T02:00:11;19.80;;;11.40;;
25381;SDS011;16307;42.896;20.874;2023-12-07T02:02:58;17.83;;;10.80;;
25381;SDS011;16307;42.896;20.874;2023-12-07T02:05:46;19.70;;;11.98;;
25381;SDS011;16307;42.896;20.874;2023-12-07T02:08:34;17.80;;;10.60;;
25381;SDS011;16307;42.896;20.874;2023-12-07T02:11:21;18.27;;;10.18;;
25381;SDS011;16307;42.896;20.874;2023-12-07T02:14:07;17.90;;;10.80;;
25381;SDS011;16307;42.896;20.874;2023-12-07T02:16:55;17.48;;;10.70;;
25381;SDS011;16307;42.896;20.874;2023-12-07T02:20:03;20.77;;;11.65;;
25381;SDS011;16307;42.896;20.874;2023-12-07T02:22:55;19.17;;;11.30;;
25381;SDS011;16307;42.896;20.874;2023-12-07T02:29:06;16.75;;;10.45;;
25381;SDS011;16307;42.896;20.874;2023-12-07T02:31:53;19.45;;;10.68;;
25381;SDS011;16307;42.896;20.874;2023-12-07T02:34:39;18.25;;;10.60;;
25381;SDS011;16307;42.896;20.874;2023-12-07T02:37:27;15.77;;;10.15;;
25381;SDS011;16307;42.896;20.874;2023-12-07T02:40:18;19.00;;;10.30;;
25381;SDS011;16307;42.896;20.874;2023-12-07T02:43:06;15.40;;;9.82;;
25381;SDS011;16307;42.896;20.874;2023-12-07T02:45:53;17.08;;;9.43;;
25381;SDS011;16307;42.896;20.874;2023-12-07T02:48:39;22.02;;;10.32;;
25381;SDS011;16307;42.896;20.874;2023-12-07T02:51:26;21.83;;;11.65;;
25381;SDS011;16307;42.896;20.874;2023-12-07T02:54:12;19.77;;;10.38;;
25381;SDS011;16307;42.896;20.874;2023-12-07T02:56:57;17.15;;;9.88;;
25381;SDS011;16307;42.896;20.874;2023-12-07T02:59:44;17.23;;;10.30;;
25381;SDS011;16307;42.896;20.874;2023-12-07T03:02:30;14.88;;;8.85;;
25381;SDS011;16307;42.896;20.874;2023-12-07T03:05:15;13.63;;;8.32;;
25381;SDS011;16307;42.896;20.874;2023-12-07T03:08:02;13.68;;;8.55;;
25381;SDS011;16307;42.896;20.874;2023-12-07T03:10:48;13.25;;;8.25;;
25381;SDS011;16307;42.896;20.874;2023-12-07T03:13:34;16.50;;;8.68;;
25381;SDS011;16307;42.896;20.874;2023-12-07T03:16:20;15.02;;;8.48;;
25381;SDS011;16307;42.896;20.874;2023-12-07T03:19:06;12.85;;;8.80;;
25381;SDS011;16307;42.896;20.874;2023-12-07T03:21:52;15.00;;;9.25;;
25381;SDS011;16307;42.896;20.874;2023-12-07T03:24:39;13.63;;;8.93;;
25381;SDS011;16307;42.896;20.874;2023-12-07T03:27:26;13.57;;;8.63;;
25381;SDS011;16307;42.896;20.874;2023-12-07T03:30:14;13.18;;;7.93;;
25381;SDS011;16307;42.896;20.874;2023-12-07T03:33:00;12.20;;;7.72;;
25381;SDS011;16307;42.896;20.874;2023-12-07T03:35:46;13.38;;;8.32;;
25381;SDS011;16307;42.896;20.874;2023-12-07T03:38:32;13.18;;;7.97;;
25381;SDS011;16307;42.896;20.874;2023-12-07T03:41:18;12.15;;;8.13;;
25381;SDS011;16307;42.896;20.874;2023-12-07T03:44:04;14.10;;;8.13;;
25381;SDS011;16307;42.896;20.874;2023-12-07T03:46:50;12.25;;;7.20;;
25381;SDS011;16307;42.896;20.874;2023-12-07T03:49:36;9.68;;;6.88;;
25381;SDS011;16307;42.896;20.874;2023-12-07T03:52:24;8.88;;;6.05;;
25381;SDS011;16307;42.896;20.874;2023-12-07T03:55:10;8.18;;;5.38;;
25381;SDS011;16307;42.896;20.874;2023-12-07T03:57:57;6.78;;;5.20;;
25381;SDS011;16307;42.896;20.874;2023-12-07T04:00:43;6.72;;;4.85;;
25381;SDS011;16307;42.896;20.874;2023-12-07T04:03:30;8.13;;;4.90;;
25381;SDS011;16307;42.896;20.874;2023-12-07T04:06:17;7.95;;;4.55;;
25381;SDS011;16307;42.896;20.874;2023-12-07T04:09:03;6.97;;;4.15;;
25381;SDS011;16307;42.896;20.874;2023-12-07T04:11:50;5.03;;;3.72;;
25381;SDS011;16307;42.896;20.874;2023-12-07T04:14:36;4.40;;;3.30;;
25381;SDS011;16307;42.896;20.874;2023-12-07T04:17:22;5.57;;;3.10;;
25381;SDS011;16307;42.896;20.874;2023-12-07T04:20:08;4.85;;;2.90;;
25381;SDS011;16307;42.896;20.874;2023-12-07T04:22:55;3.22;;;2.40;;
25381;SDS011;16307;42.896;20.874;2023-12-07T04:25:41;3.40;;;2.15;;
25381;SDS011;16307;42.896;20.874;2023-12-07T04:28:27;2.10;;;1.83;;
25381;SDS011;16307;42.896;20.874;2023-12-07T04:31:13;2.20;;;2.00;;
25381;SDS011;16307;42.896;20.874;2023-12-07T04:33:59;2.65;;;2.15;;
25381;SDS011;16307;42.896;20.874;2023-12-07T04:36:46;3.58;;;2.25;;
25381;SDS011;16307;42.896;20.874;2023-12-07T04:39:32;3.75;;;2.70;;
25381;SDS011;16307;42.896;20.874;2023-12-07T04:42:18;2.70;;;1.90;;
25381;SDS011;16307;42.896;20.874;2023-12-07T04:45:04;3.13;;;2.33;;
25381;SDS011;16307;42.896;20.874;2023-12-07T04:47:51;2.63;;;1.92;;
25381;SDS011;16307;42.896;20.874;2023-12-07T04:50:37;3.53;;;2.20;;
25381;SDS011;16307;42.896;20.874;2023-12-07T04:53:23;3.90;;;2.38;;
25381;SDS011;16307;42.896;20.874;2023-12-07T04:56:10;3.13;;;2.40;;
25381;SDS011;16307;42.896;20.874;2023-12-07T04:58:56;2.38;;;2.13;;
25381;SDS011;16307;42.896;20.874;2023-12-07T05:01:42;2.38;;;2.17;;
25381;SDS011;16307;42.896;20.874;2023-12-07T05:04:28;3.25;;;2.42;;
25381;SDS011;16307;42.896;20.874;2023-12-07T05:07:14;3.65;;;2.25;;
25381;SDS011;16307;42.896;20.874;2023-12-07T05:10:01;3.67;;;2.60;;
25381;SDS011;16307;42.896;20.874;2023-12-07T05:12:48;3.83;;;2.50;;
25381;SDS011;16307;42.896;20.874;2023-12-07T05:15:34;3.10;;;2.60;;
25381;SDS011;16307;42.896;20.874;2023-12-07T05:18:20;3.15;;;2.30;;
25381;SDS011;16307;42.896;20.874;2023-12-07T05:21:06;3.60;;;2.80;;
25381;SDS011;16307;42.896;20.874;2023-12-07T05:23:53;3.65;;;2.50;;
25381;SDS011;16307;42.896;20.874;2023-12-07T05:26:40;3.85;;;2.50;;
25381;SDS011;16307;42.896;20.874;2023-12-07T05:29:27;4.38;;;2.90;;
25381;SDS011;16307;42.896;20.874;2023-12-07T05:32:14;3.67;;;2.72;;
25381;SDS011;16307;42.896;20.874;2023-12-07T05:35:00;3.72;;;2.95;;
25381;SDS011;16307;42.896;20.874;2023-12-07T05:37:46;3.38;;;2.55;;
25381;SDS011;16307;42.896;20.874;2023-12-07T05:40:32;3.92;;;2.85;;
25381;SDS011;16307;42.896;20.874;2023-12-07T05:43:19;3.58;;;2.85;;
25381;SDS011;16307;42.896;20.874;2023-12-07T05:46:05;4.63;;;3.22;;
25381;SDS011;16307;42.896;20.874;2023-12-07T05:48:51;3.13;;;2.70;;
25381;SDS011;16307;42.896;20.874;2023-12-07T05:51:40;4.15;;;3.10;;
25381;SDS011;16307;42.896;20.874;2023-12-07T05:54:27;4.00;;;3.03;;
25381;SDS011;16307;42.896;20.874;2023-12-07T05:57:13;4.90;;;3.45;;
25381;SDS011;16307;42.896;20.874;2023-12-07T05:59:59;4.53;;;3.65;;
25381;SDS011;16307;42.896;20.874;2023-12-07T06:02:45;6.10;;;4.03;;
25381;SDS011;16307;42.896;20.874;2023-12-07T06:05:31;5.55;;;3.58;;
25381;SDS011;16307;42.896;20.874;2023-12-07T06:08:17;4.95;;;3.40;;
25381;SDS011;16307;42.896;20.874;2023-12-07T06:11:03;5.88;;;3.40;;
25381;SDS011;16307;42.896;20.874;2023-12-07T06:13:50;5.22;;;3.65;;
25381;SDS011;16307;42.896;20.874;2023-12-07T06:16:36;4.60;;;3.30;;
25381;SDS011;16307;42.896;20.874;2023-12-07T06:19:22;5.28;;;3.58;;
25381;SDS011;16307;42.896;20.874;2023-12-07T06:22:08;5.10;;;2.97;;
25381;SDS011;16307;42.896;20.874;2023-12-07T06:24:56;5.57;;;3.90;;
25381;SDS011;16307;42.896;20.874;2023-12-07T06:27:42;6.60;;;3.47;;
25381;SDS011;16307;42.896;20.874;2023-12-07T06:30:28;5.18;;;3.80;;
25381;SDS011;16307;42.896;20.874;2023-12-07T06:33:14;8.13;;;4.10;;
25381;SDS011;16307;42.896;20.874;2023-12-07T06:36:00;4.97;;;3.80;;
25381;SDS011;16307;42.896;20.874;2023-12-07T06:38:49;3.95;;;3.03;;
25381;SDS011;16307;42.896;20.874;2023-12-07T06:41:35;4.55;;;3.15;;
25381;SDS011;16307;42.896;20.874;2023-12-07T06:44:22;4.20;;;3.00;;
25381;SDS011;16307;42.896;20.874;2023-12-07T06:47:08;3.58;;;3.15;;
25381;SDS011;16307;42.896;20.874;2023-12-07T06:49:55;4.07;;;3.38;;
25381;SDS011;16307;42.896;20.874;2023-12-07T06:52:43;4.68;;;3.55;;
25381;SDS011;16307;42.896;20.874;2023-12-07T06:55:31;4.43;;;2.97;;
25381;SDS011;16307;42.896;20.874;2023-12-07T06:58:21;5.30;;;3.65;;
25381;SDS011;16307;42.896;20.874;2023-12-07T07:01:09;6.82;;;3.33;;
25381;SDS011;16307;42.896;20.874;2023-12-07T07:03:56;3.83;;;3.15;;
25381;SDS011;16307;42.896;20.874;2023-12-07T07:06:43;5.22;;;3.53;;
25381;SDS011;16307;42.896;20.874;2023-12-07T07:09:31;6.35;;;4.18;;
25381;SDS011;16307;42.896;20.874;2023-12-07T07:12:18;5.00;;;3.90;;
25381;SDS011;16307;42.896;20.874;2023-12-07T07:15:07;6.10;;;4.13;;
25381;SDS011;16307;42.896;20.874;2023-12-07T07:17:55;5.20;;;3.63;;
25381;SDS011;16307;42.896;20.874;2023-12-07T07:20:43;4.80;;;3.40;;
25381;SDS011;16307;42.896;20.874;2023-12-07T07:23:31;4.03;;;2.88;;
25381;SDS011;16307;42.896;20.874;2023-12-07T07:26:18;3.95;;;2.85;;
25381;SDS011;16307;42.896;20.874;2023-12-07T07:29:06;3.83;;;2.67;;
25381;SDS011;16307;42.896;20.874;2023-12-07T07:31:54;4.18;;;2.50;;
25381;SDS011;16307;42.896;20.874;2023-12-07T07:34:42;4.70;;;2.97;;
25381;SDS011;16307;42.896;20.874;2023-12-07T07:37:30;3.35;;;2.92;;
25381;SDS011;16307;42.896;20.874;2023-12-07T07:40:18;4.03;;;2.90;;
25381;SDS011;16307;42.896;20.874;2023-12-07T07:43:05;3.20;;;2.55;;
25381;SDS011;16307;42.896;20.874;2023-12-07T07:45:55;3.30;;;2.45;;
25381;SDS011;16307;42.896;20.874;2023-12-07T07:48:42;4.00;;;3.20;;
25381;SDS011;16307;42.896;20.874;2023-12-07T07:51:30;4.00;;;2.90;;
25381;SDS011;16307;42.896;20.874;2023-12-07T07:54:18;3.72;;;2.58;;
25381;SDS011;16307;42.896;20.874;2023-12-07T07:57:05;3.67;;;2.70;;
25381;SDS011;16307;42.896;20.874;2023-12-07T07:59:53;3.70;;;2.92;;
25381;SDS011;16307;42.896;20.874;2023-12-07T08:02:40;4.40;;;3.13;;
25381;SDS011;16307;42.896;20.874;2023-12-07T08:05:27;4.15;;;3.22;;
25381;SDS011;16307;42.896;20.874;2023-12-07T08:08:15;4.45;;;3.00;;
25381;SDS011;16307;42.896;20.874;2023-12-07T08:11:02;4.15;;;2.90;;
25381;SDS011;16307;42.896;20.874;2023-12-07T08:13:51;4.63;;;3.08;;
25381;SDS011;16307;42.896;20.874;2023-12-07T08:16:42;7.65;;;3.20;;
25381;SDS011;16307;42.896;20.874;2023-12-07T08:19:30;3.20;;;2.35;;
25381;SDS011;16307;42.896;20.874;2023-12-07T08:22:18;4.07;;;2.95;;
25381;SDS011;16307;42.896;20.874;2023-12-07T08:25:04;5.93;;;3.53;;
25381;SDS011;16307;42.896;20.874;2023-12-07T08:27:56;5.40;;;3.00;;
25381;SDS011;16307;42.896;20.874;2023-12-07T08:30:42;5.47;;;3.15;;
25381;SDS011;16307;42.896;20.874;2023-12-07T08:33:28;2.97;;;2.38;;
25381;SDS011;16307;42.896;20.874;2023-12-07T08:36:15;2.85;;;2.42;;
25381;SDS011;16307;42.896;20.874;2023-12-07T08:39:02;4.72;;;3.20;;
25381;SDS011;16307;42.896;20.874;2023-12-07T08:41:48;4.75;;;2.45;;
25381;SDS011;16307;42.896;20.874;2023-12-07T08:44:35;4.03;;;2.83;;
25381;SDS011;16307;42.896;20.874;2023-12-07T08:47:21;3.42;;;2.75;;
25381;SDS011;16307;42.896;20.874;2023-12-07T08:50:08;4.60;;;2.67;;
25381;SDS011;16307;42.896;20.874;2023-12-07T08:52:54;3.50;;;2.50;;
25381;SDS011;16307;42.896;20.874;2023-12-07T08:55:48;2.75;;;2.38;;
25381;SDS011;16307;42.896;20.874;2023-12-07T08:58:35;3.85;;;2.65;;
25381;SDS011;16307;42.896;20.874;2023-12-07T09:01:21;8.02;;;4.47;;
25381;SDS011;16307;42.896;20.874;2023-12-07T09:04:17;5.38;;;3.60;;
25381;SDS011;16307;42.896;20.874;2023-12-07T09:07:03;4.25;;;3.00;;
25381;SDS011;16307;42.896;20.874;2023-12-07T09:09:51;3.53;;;2.28;;
25381;SDS011;16307;42.896;20.874;2023-12-07T09:12:37;3.58;;;2.63;;
25381;SDS011;16307;42.896;20.874;2023-12-07T09:15:25;2.72;;;2.38;;
25381;SDS011;16307;42.896;20.874;2023-12-07T09:18:10;2.45;;;1.92;;
25381;SDS011;16307;42.896;20.874;2023-12-07T09:20:57;2.63;;;2.42;;
25381;SDS011;16307;42.896;20.874;2023-12-07T09:23:43;3.92;;;2.38;;
25381;SDS011;16307;42.896;20.874;2023-12-07T09:26:30;3.53;;;2.53;;
25381;SDS011;16307;42.896;20.874;2023-12-07T09:29:16;3.85;;;2.70;;
25381;SDS011;16307;42.896;20.874;2023-12-07T09:32:02;3.63;;;2.40;;
25381;SDS011;16307;42.896;20.874;2023-12-07T09:34:49;3.58;;;2.53;;
25381;SDS011;16307;42.896;20.874;2023-12-07T09:37:36;4.15;;;2.90;;
25381;SDS011;16307;42.896;20.874;2023-12-07T09:40:22;4.40;;;2.80;;
25381;SDS011;16307;42.896;20.874;2023-12-07T09:43:10;3.95;;;2.63;;
25381;SDS011;16307;42.896;20.874;2023-12-07T09:45:58;3.80;;;2.42;;
25381;SDS011;16307;42.896;20.874;2023-12-07T09:48:44;3.70;;;2.50;;
25381;SDS011;16307;42.896;20.874;2023-12-07T09:51:33;3.70;;;2.60;;
25381;SDS011;16307;42.896;20.874;2023-12-07T09:54:20;5.25;;;2.53;;
25381;SDS011;16307;42.896;20.874;2023-12-07T09:57:06;3.90;;;2.90;;
25381;SDS011;16307;42.896;20.874;2023-12-07T09:59:52;3.28;;;2.55;;
25381;SDS011;16307;42.896;20.874;2023-12-07T10:02:38;3.15;;;2.20;;
25381;SDS011;16307;42.896;20.874;2023-12-07T10:05:24;84.88;;;32.30;;
25381;SDS011;16307;42.896;20.874;2023-12-07T10:08:11;5.28;;;3.72;;
25381;SDS011;16307;42.896;20.874;2023-12-07T10:11:11;4.57;;;2.92;;
25381;SDS011;16307;42.896;20.874;2023-12-07T10:14:00;4.03;;;2.72;;
25381;SDS011;16307;42.896;20.874;2023-12-07T10:16:53;3.75;;;2.42;;
25381;SDS011;16307;42.896;20.874;2023-12-07T10:19:43;3.50;;;2.45;;
25381;SDS011;16307;42.896;20.874;2023-12-07T10:22:29;3.95;;;2.80;;
25381;SDS011;16307;42.896;20.874;2023-12-07T10:25:15;3.20;;;2.35;;
25381;SDS011;16307;42.896;20.874;2023-12-07T10:28:01;2.58;;;2.38;;
25381;SDS011;16307;42.896;20.874;2023-12-07T10:30:52;3.80;;;2.50;;
25381;SDS011;16307;42.896;20.874;2023-12-07T10:33:38;3.58;;;2.42;;
25381;SDS011;16307;42.896;20.874;2023-12-07T10:36:25;3.45;;;2.50;;
25381;SDS011;16307;42.896;20.874;2023-12-07T10:39:11;3.65;;;2.67;;
25381;SDS011;16307;42.896;20.874;2023-12-07T10:42:06;3.58;;;2.60;;
25381;SDS011;16307;42.896;20.874;2023-12-07T10:44:56;3.00;;;2.50;;
25381;SDS011;16307;42.896;20.874;2023-12-07T10:47:44;3.25;;;2.50;;
25381;SDS011;16307;42.896;20.874;2023-12-07T10:50:31;3.85;;;2.80;;
25381;SDS011;16307;42.896;20.874;2023-12-07T10:53:24;3.97;;;2.42;;
25381;SDS011;16307;42.896;20.874;2023-12-07T10:56:20;3.55;;;2.47;;
25381;SDS011;16307;42.896;20.874;2023-12-07T10:59:14;3.08;;;2.50;;
25381;SDS011;16307;42.896;20.874;2023-12-07T11:02:14;4.38;;;2.70;;
25381;SDS011;16307;42.896;20.874;2023-12-07T11:05:05;3.75;;;3.00;;
25381;SDS011;16307;42.896;20.874;2023-12-07T11:07:57;4.47;;;3.33;;
25381;SDS011;16307;42.896;20.874;2023-12-07T11:13:52;4.32;;;3.20;;
25381;SDS011;16307;42.896;20.874;2023-12-07T11:16:41;5.65;;;3.42;;
25381;SDS011;16307;42.896;20.874;2023-12-07T11:22:21;4.53;;;3.22;;
25381;SDS011;16307;42.896;20.874;2023-12-07T11:25:11;5.65;;;3.50;;
25381;SDS011;16307;42.896;20.874;2023-12-07T11:28:01;4.53;;;3.42;;
25381;SDS011;16307;42.896;20.874;2023-12-07T11:30:48;4.65;;;3.55;;
25381;SDS011;16307;42.896;20.874;2023-12-07T11:33:38;6.03;;;4.53;;
25381;SDS011;16307;42.896;20.874;2023-12-07T11:36:28;4.72;;;3.67;;
25381;SDS011;16307;42.896;20.874;2023-12-07T11:39:15;6.68;;;3.60;;
25381;SDS011;16307;42.896;20.874;2023-12-07T11:42:20;6.38;;;4.30;;
25381;SDS011;16307;42.896;20.874;2023-12-07T11:45:09;5.03;;;3.97;;
25381;SDS011;16307;42.896;20.874;2023-12-07T11:48:11;6.32;;;4.07;;
25381;SDS011;16307;42.896;20.874;2023-12-07T11:51:06;7.57;;;4.78;;
25381;SDS011;16307;42.896;20.874;2023-12-07T11:53:57;7.35;;;4.90;;
25381;SDS011;16307;42.896;20.874;2023-12-07T11:56:43;7.32;;;4.63;;
25381;SDS011;16307;42.896;20.874;2023-12-07T11:59:29;6.55;;;4.30;;
25381;SDS011;16307;42.896;20.874;2023-12-07T12:02:19;5.03;;;3.58;;
25381;SDS011;16307;42.896;20.874;2023-12-07T12:05:05;6.30;;;4.55;;
25381;SDS011;16307;42.896;20.874;2023-12-07T12:07:51;6.25;;;4.35;;
25381;SDS011;16307;42.896;20.874;2023-12-07T12:10:38;6.07;;;4.25;;
25381;SDS011;16307;42.896;20.874;2023-12-07T12:13:29;36.92;;;18.67;;
25381;SDS011;16307;42.896;20.874;2023-12-07T12:16:15;11.68;;;6.30;;
25381;SDS011;16307;42.896;20.874;2023-12-07T12:19:01;5.45;;;3.85;;
25381;SDS011;16307;42.896;20.874;2023-12-07T12:21:48;6.47;;;4.25;;
25381;SDS011;16307;42.896;20.874;2023-12-07T12:24:34;5.88;;;4.10;;
25381;SDS011;16307;42.896;20.874;2023-12-07T12:27:23;7.45;;;4.63;;
25381;SDS011;16307;42.896;20.874;2023-12-07T12:30:09;6.25;;;4.47;;
25381;SDS011;16307;42.896;20.874;2023-12-07T12:32:59;9.25;;;4.95;;
25381;SDS011;16307;42.896;20.874;2023-12-07T12:36:00;11.35;;;6.68;;
25381;SDS011;16307;42.896;20.874;2023-12-07T12:38:53;6.25;;;4.47;;
25381;SDS011;16307;42.896;20.874;2023-12-07T12:41:39;7.57;;;5.50;;
25381;SDS011;16307;42.896;20.874;2023-12-07T12:44:25;7.63;;;4.47;;
25381;SDS011;16307;42.896;20.874;2023-12-07T12:47:21;7.13;;;4.55;;
25381;SDS011;16307;42.896;20.874;2023-12-07T12:50:08;6.57;;;4.45;;
25381;SDS011;16307;42.896;20.874;2023-12-07T12:52:57;6.97;;;3.92;;
25381;SDS011;16307;42.896;20.874;2023-12-07T12:55:43;5.85;;;4.30;;
25381;SDS011;16307;42.896;20.874;2023-12-07T12:58:32;9.98;;;4.57;;
25381;SDS011;16307;42.896;20.874;2023-12-07T13:01:19;6.07;;;3.75;;
25381;SDS011;16307;42.896;20.874;2023-12-07T13:04:06;6.07;;;4.10;;
25381;SDS011;16307;42.896;20.874;2023-12-07T13:06:53;7.72;;;4.10;;
25381;SDS011;16307;42.896;20.874;2023-12-07T13:09:39;5.45;;;4.18;;
25381;SDS011;16307;42.896;20.874;2023-12-07T13:12:25;5.68;;;4.10;;
25381;SDS011;16307;42.896;20.874;2023-12-07T13:15:13;8.18;;;4.45;;
25381;SDS011;16307;42.896;20.874;2023-12-07T13:17:59;5.88;;;4.05;;
25381;SDS011;16307;42.896;20.874;2023-12-07T13:20:49;8.57;;;4.18;;
25381;SDS011;16307;42.896;20.874;2023-12-07T13:23:41;5.80;;;4.10;;
25381;SDS011;16307;42.896;20.874;2023-12-07T13:26:27;5.22;;;4.20;;
25381;SDS011;16307;42.896;20.874;2023-12-07T13:29:13;6.05;;;4.10;;
25381;SDS011;16307;42.896;20.874;2023-12-07T13:32:13;6.40;;;4.32;;
25381;SDS011;16307;42.896;20.874;2023-12-07T13:34:59;7.00;;;4.53;;
25381;SDS011;16307;42.896;20.874;2023-12-07T13:37:46;6.28;;;4.15;;
25381;SDS011;16307;42.896;20.874;2023-12-07T13:40:33;16.08;;;6.55;;
25381;SDS011;16307;42.896;20.874;2023-12-07T13:43:23;12.45;;;6.03;;
25381;SDS011;16307;42.896;20.874;2023-12-07T13:46:14;11.52;;;4.90;;
25381;SDS011;16307;42.896;20.874;2023-12-07T13:49:02;14.13;;;6.65;;
25381;SDS011;16307;42.896;20.874;2023-12-07T13:51:49;5.90;;;4.13;;
25381;SDS011;16307;42.896;20.874;2023-12-07T13:54:36;6.20;;;3.65;;
25381;SDS011;16307;42.896;20.874;2023-12-07T13:57:38;7.38;;;4.35;;
25381;SDS011;16307;42.896;20.874;2023-12-07T14:00:25;9.82;;;5.20;;
25381;SDS011;16307;42.896;20.874;2023-12-07T14:03:11;11.60;;;5.43;;
25381;SDS011;16307;42.896;20.874;2023-12-07T14:05:58;12.90;;;5.80;;
25381;SDS011;16307;42.896;20.874;2023-12-07T14:08:44;8.27;;;4.88;;
25381;SDS011;16307;42.896;20.874;2023-12-07T14:11:31;12.32;;;5.45;;
25381;SDS011;16307;42.896;20.874;2023-12-07T14:14:17;8.02;;;4.22;;
25381;SDS011;16307;42.896;20.874;2023-12-07T14:17:03;7.55;;;4.50;;
25381;SDS011;16307;42.896;20.874;2023-12-07T14:19:51;6.07;;;4.25;;
25381;SDS011;16307;42.896;20.874;2023-12-07T14:22:50;6.47;;;4.10;;
25381;SDS011;16307;42.896;20.874;2023-12-07T14:25:36;6.75;;;4.32;;
25381;SDS011;16307;42.896;20.874;2023-12-07T14:28:25;6.75;;;4.57;;
25381;SDS011;16307;42.896;20.874;2023-12-07T14:31:13;5.85;;;4.38;;
25381;SDS011;16307;42.896;20.874;2023-12-07T14:34:02;6.88;;;4.93;;
25381;SDS011;16307;42.896;20.874;2023-12-07T14:36:49;8.93;;;4.82;;
25381;SDS011;16307;42.896;20.874;2023-12-07T14:39:35;8.88;;;5.80;;
25381;SDS011;16307;42.896;20.874;2023-12-07T14:42:22;7.45;;;4.53;;
25381;SDS011;16307;42.896;20.874;2023-12-07T14:45:08;8.57;;;5.28;;
25381;SDS011;16307;42.896;20.874;2023-12-07T14:47:56;6.28;;;4.57;;
25381;SDS011;16307;42.896;20.874;2023-12-07T14:50:43;7.65;;;5.07;;
25381;SDS011;16307;42.896;20.874;2023-12-07T14:53:30;8.25;;;5.00;;
25381;SDS011;16307;42.896;20.874;2023-12-07T14:56:16;7.38;;;4.75;;
25381;SDS011;16307;42.896;20.874;2023-12-07T14:59:02;8.27;;;5.50;;
25381;SDS011;16307;42.896;20.874;2023-12-07T15:01:48;7.28;;;4.88;;
25381;SDS011;16307;42.896;20.874;2023-12-07T15:04:39;9.50;;;5.85;;
25381;SDS011;16307;42.896;20.874;2023-12-07T15:07:25;6.88;;;4.88;;
25381;SDS011;16307;42.896;20.874;2023-12-07T15:10:11;8.38;;;5.88;;
25381;SDS011;16307;42.896;20.874;2023-12-07T15:12:57;8.25;;;5.63;;
25381;SDS011;16307;42.896;20.874;2023-12-07T15:15:44;7.30;;;5.28;;
25381;SDS011;16307;42.896;20.874;2023-12-07T15:18:32;9.25;;;5.65;;
25381;SDS011;16307;42.896;20.874;2023-12-07T15:21:20;9.98;;;5.90;;
25381;SDS011;16307;42.896;20.874;2023-12-07T15:24:07;9.80;;;6.13;;
25381;SDS011;16307;42.896;20.874;2023-12-07T15:26:55;12.52;;;5.97;;
25381;SDS011;16307;42.896;20.874;2023-12-07T15:29:41;12.77;;;6.43;;
25381;SDS011;16307;42.896;20.874;2023-12-07T15:32:27;8.77;;;5.80;;
25381;SDS011;16307;42.896;20.874;2023-12-07T15:35:14;9.57;;;6.03;;
25381;SDS011;16307;42.896;20.874;2023-12-07T15:38:00;8.15;;;5.18;;
25381;SDS011;16307;42.896;20.874;2023-12-07T15:40:46;10.90;;;6.30;;
25381;SDS011;16307;42.896;20.874;2023-12-07T15:43:33;8.02;;;5.68;;
25381;SDS011;16307;42.896;20.874;2023-12-07T15:46:20;8.63;;;5.80;;
25381;SDS011;16307;42.896;20.874;2023-12-07T15:49:07;7.72;;;5.30;;
25381;SDS011;16307;42.896;20.874;2023-12-07T15:51:54;9.38;;;5.53;;
25381;SDS011;16307;42.896;20.874;2023-12-07T15:54:45;11.85;;;5.13;;
25381;SDS011;16307;42.896;20.874;2023-12-07T15:57:31;8.30;;;4.97;;
25381;SDS011;16307;42.896;20.874;2023-12-07T16:00:17;8.13;;;4.82;;
25381;SDS011;16307;42.896;20.874;2023-12-07T16:03:03;7.45;;;4.60;;
25381;SDS011;16307;42.896;20.874;2023-12-07T16:05:49;9.52;;;5.43;;
25381;SDS011;16307;42.896;20.874;2023-12-07T16:08:35;8.60;;;5.38;;
25381;SDS011;16307;42.896;20.874;2023-12-07T16:11:22;7.50;;;4.60;;
25381;SDS011;16307;42.896;20.874;2023-12-07T16:14:08;6.55;;;4.50;;
25381;SDS011;16307;42.896;20.874;2023-12-07T16:17:01;8.40;;;4.65;;
25381;SDS011;16307;42.896;20.874;2023-12-07T16:19:48;7.55;;;4.85;;
25381;SDS011;16307;42.896;20.874;2023-12-07T16:22:34;7.00;;;4.68;;
25381;SDS011;16307;42.896;20.874;2023-12-07T16:25:21;6.97;;;4.05;;
25381;SDS011;16307;42.896;20.874;2023-12-07T16:28:07;6.57;;;4.45;;
25381;SDS011;16307;42.896;20.874;2023-12-07T16:30:53;6.82;;;4.40;;
25381;SDS011;16307;42.896;20.874;2023-12-07T16:33:40;8.23;;;4.35;;
25381;SDS011;16307;42.896;20.874;2023-12-07T16:36:28;8.60;;;5.45;;